createdAt,value
2022-12-23T00:00:46.085Z,24.40
2022-12-23T00:03:29.696Z,22.70
2022-12-23T00:06:00.995Z,24.40
2022-12-23T00:08:29.198Z,23.50
2022-12-23T00:11:00.651Z,24.10
2022-12-23T00:13:47.461Z,25.40
2022-12-23T00:16:16.269Z,23.50
2022-12-23T00:18:46.781Z,23.50
2022-12-23T00:21:20.418Z,21.80
2022-12-23T00:23:52.489Z,22.20
2022-12-23T00:26:28.498Z,26.20
2022-12-23T00:29:00.975Z,21.50
2022-12-23T00:31:29.187Z,22.50
2022-12-23T00:33:58.569Z,20.00
2022-12-23T00:36:32.463Z,21.70
2022-12-23T00:39:19.531Z,19.80
2022-12-23T00:42:06.179Z,22.30
2022-12-23T00:44:39.036Z,21.10
2022-12-23T00:47:07.020Z,22.10
2022-12-23T00:49:44.458Z,20.80
2022-12-23T00:52:17.024Z,20.00
2022-12-23T00:54:45.033Z,20.10
2022-12-23T00:57:17.446Z,20.40
2022-12-23T00:59:45.605Z,22.30
2022-12-23T01:02:32.434Z,21.00
2022-12-23T01:05:21.216Z,20.90
2022-12-23T01:07:49.375Z,20.80
2022-12-23T01:10:19.950Z,20.00
2022-12-23T01:12:47.895Z,21.70
2022-12-23T01:15:19.696Z,22.20
2022-12-23T01:17:47.862Z,22.00
2022-12-23T01:20:15.826Z,21.20
2022-12-23T01:22:44.098Z,23.10
2022-12-23T01:25:12.312Z,20.30
2022-12-23T01:27:42.224Z,22.40
2022-12-23T01:30:14.452Z,20.90
2022-12-23T01:32:42.659Z,21.00
2022-12-23T01:35:13.598Z,21.80
2022-12-23T01:37:41.923Z,22.30
2022-12-23T01:40:13.024Z,22.30
2022-12-23T01:42:44.192Z,20.90
2022-12-23T01:45:22.258Z,22.10
2022-12-23T01:47:54.575Z,22.10
2022-12-23T01:50:34.500Z,21.70
2022-12-23T01:53:25.485Z,21.20
2022-12-23T01:56:02.178Z,21.30
2022-12-23T01:58:56.545Z,23.40
2022-12-23T02:01:45.953Z,20.80
2022-12-23T02:04:23.310Z,19.90
2022-12-23T02:07:15.088Z,23.10
2022-12-23T02:09:43.293Z,18.60
2022-12-23T02:12:33.741Z,22.00
2022-12-23T02:15:47.861Z,21.90
2022-12-23T02:18:49.894Z,22.90
2022-12-23T02:21:26.723Z,21.20
2022-12-23T02:23:58.187Z,22.00
2022-12-23T02:26:44.406Z,21.90
2022-12-23T02:29:15.332Z,21.30
2022-12-23T02:32:03.739Z,22.80
2022-12-23T02:34:49.489Z,22.50
2022-12-23T02:37:36.919Z,22.90
2022-12-23T02:40:23.229Z,21.10
2022-12-23T02:43:02.532Z,22.90
2022-12-23T02:45:38.698Z,23.00
2022-12-23T02:48:23.764Z,20.70
2022-12-23T02:50:54.797Z,22.30
2022-12-23T02:53:35.710Z,22.80
2022-12-23T02:56:09.575Z,22.50
2022-12-23T02:58:48.068Z,23.90
2022-12-23T03:01:18.139Z,24.30
2022-12-23T03:03:52.067Z,23.40
2022-12-23T03:06:34.168Z,23.50
2022-12-23T03:09:02.315Z,22.40
2022-12-23T03:11:47.487Z,24.90
2022-12-23T03:14:47.655Z,25.60
2022-12-23T03:17:27.676Z,22.90
2022-12-23T03:22:49.970Z,24.00
2022-12-23T03:25:36.267Z,24.70
2022-12-23T03:28:32.358Z,23.10
2022-12-23T03:31:06.219Z,22.60
2022-12-23T03:33:41.039Z,23.10
2022-12-23T03:36:47.113Z,24.30
2022-12-23T03:39:25.646Z,24.40
2022-12-23T03:42:06.699Z,24.90
2022-12-23T03:45:10.815Z,25.70
2022-12-23T03:47:59.307Z,24.70
2022-12-23T03:50:32.703Z,23.90
2022-12-23T03:53:30.277Z,23.60
2022-12-23T03:56:16.758Z,23.00
2022-12-23T03:58:57.086Z,25.20
2022-12-23T04:01:27.842Z,22.30
2022-12-23T04:04:25.686Z,23.40
2022-12-23T04:07:11.011Z,25.50
2022-12-23T04:09:44.279Z,23.80
2022-12-23T04:12:16.424Z,22.30
2022-12-23T04:14:50.977Z,23.40
2022-12-23T04:17:23.835Z,24.00
2022-12-23T04:19:57.168Z,22.50
2022-12-23T04:22:25.186Z,24.30
2022-12-23T04:24:53.210Z,23.50
2022-12-23T04:27:21.366Z,22.80
2022-12-23T04:29:49.276Z,23.40
2022-12-23T04:32:17.265Z,24.10
2022-12-23T04:34:45.402Z,24.40
2022-12-23T04:37:13.607Z,23.50
2022-12-23T04:39:41.553Z,23.80
2022-12-23T04:42:09.539Z,25.00
2022-12-23T04:44:37.566Z,24.20
2022-12-23T04:47:05.576Z,24.40
2022-12-23T04:49:36.243Z,24.70
2022-12-23T04:52:06.190Z,25.10
2022-12-23T04:54:45.531Z,22.50
2022-12-23T04:57:18.922Z,22.40
2022-12-23T04:59:47.393Z,23.60
2022-12-23T05:02:15.885Z,24.30
2022-12-23T05:04:48.412Z,23.50
2022-12-23T05:07:16.607Z,23.00
2022-12-23T05:09:44.734Z,23.20
2022-12-23T05:12:16.922Z,24.30
2022-12-23T05:14:45.147Z,23.90
2022-12-23T05:17:13.096Z,22.60
2022-12-23T05:19:41.279Z,23.30
2022-12-23T05:22:09.431Z,25.50
2022-12-23T05:24:37.585Z,23.00
2022-12-23T05:27:08.840Z,23.60
2022-12-23T05:29:37.044Z,24.30
2022-12-23T05:32:08.191Z,22.30
2022-12-23T05:34:36.359Z,21.50
2022-12-23T05:37:04.375Z,24.20
2022-12-23T05:39:32.553Z,23.00
2022-12-23T05:42:00.477Z,21.90
2022-12-23T05:44:28.644Z,22.90
2022-12-23T05:46:56.694Z,23.70
2022-12-23T05:49:27.080Z,22.60
2022-12-23T05:51:55.256Z,23.80
2022-12-23T05:54:23.196Z,23.50
2022-12-23T05:56:51.423Z,22.40
2022-12-23T05:59:21.658Z,23.10
2022-12-23T06:01:49.805Z,23.10
2022-12-23T06:04:18.721Z,23.00
2022-12-23T06:06:51.069Z,22.80
2022-12-23T06:09:19.025Z,21.30
2022-12-23T06:11:51.802Z,23.30
2022-12-23T06:14:25.163Z,20.80
2022-12-23T06:16:56.869Z,23.80
2022-12-23T06:19:27.922Z,22.10
2022-12-23T06:21:56.025Z,22.20
2022-12-23T06:24:24.256Z,22.50
2022-12-23T06:26:56.988Z,21.90
2022-12-23T06:29:30.826Z,21.50
2022-12-23T06:31:58.819Z,17.40
2022-12-23T06:34:35.836Z,19.00
2022-12-23T06:37:04.139Z,22.10
2022-12-23T06:39:32.366Z,21.80
2022-12-23T06:42:00.523Z,22.10
2022-12-23T06:44:28.488Z,21.20
2022-12-23T06:46:56.645Z,20.60
2022-12-23T06:49:24.828Z,21.40
2022-12-23T06:51:53.030Z,22.60
2022-12-23T06:54:20.994Z,22.60
2022-12-23T06:56:48.952Z,20.50
2022-12-23T06:59:16.928Z,22.00
2022-12-23T07:01:45.147Z,21.30
2022-12-23T07:04:17.634Z,19.70
2022-12-23T07:06:45.852Z,20.10
2022-12-23T07:09:14.024Z,22.80
2022-12-23T07:11:42.233Z,21.40
2022-12-23T07:14:13.259Z,21.80
2022-12-23T07:16:41.523Z,22.90
2022-12-23T07:19:14.033Z,20.20
2022-12-23T07:21:42.222Z,22.00
2022-12-23T07:24:12.859Z,24.20
2022-12-23T07:26:45.743Z,24.10
2022-12-23T07:29:13.928Z,21.60
2022-12-23T07:31:45.371Z,22.60
2022-12-23T07:34:17.119Z,21.10
2022-12-23T07:36:46.043Z,20.60
2022-12-23T07:39:13.999Z,20.90
2022-12-23T07:41:42.393Z,20.00
2022-12-23T07:44:10.385Z,19.80
2022-12-23T07:46:39.321Z,20.10
2022-12-23T07:49:12.629Z,17.90
2022-12-23T07:51:40.889Z,19.50
2022-12-23T07:54:09.068Z,19.40
2022-12-23T07:56:36.981Z,18.40
2022-12-23T07:59:05.126Z,19.10
2022-12-23T08:01:36.333Z,19.30
2022-12-23T08:04:09.239Z,19.40
2022-12-23T08:06:37.831Z,17.70
2022-12-23T08:09:14.175Z,20.20
2022-12-23T08:11:42.434Z,17.00
2022-12-23T08:14:13.453Z,18.50
2022-12-23T08:16:43.945Z,19.50
2022-12-23T08:19:18.068Z,18.40
2022-12-23T08:21:46.021Z,18.80
2022-12-23T08:24:17.247Z,18.60
2022-12-23T08:26:45.531Z,19.70
2022-12-23T08:29:13.672Z,18.20
2022-12-23T08:31:41.640Z,20.10
2022-12-23T08:34:15.324Z,20.10
2022-12-23T08:39:17.675Z,18.20
2022-12-23T08:41:52.133Z,19.10
2022-12-23T08:44:20.120Z,18.30
2022-12-23T08:46:52.795Z,17.90
2022-12-23T08:49:21.654Z,17.10
2022-12-23T08:51:54.524Z,17.20
2022-12-23T08:54:28.508Z,18.30
2022-12-23T08:56:56.799Z,17.70
2022-12-23T08:59:24.872Z,19.40
2022-12-23T09:01:53.063Z,16.30
2022-12-23T09:04:26.079Z,17.50
2022-12-23T09:06:54.134Z,16.60
2022-12-23T09:09:22.138Z,17.60
2022-12-23T09:11:50.211Z,16.30
2022-12-23T09:14:18.421Z,17.90
2022-12-23T09:16:46.622Z,15.60
2022-12-23T09:19:14.850Z,15.60
2022-12-23T09:21:42.795Z,15.70
2022-12-23T09:24:10.759Z,14.40
2022-12-23T09:26:39.094Z,14.10
2022-12-23T09:29:07.068Z,15.10
2022-12-23T09:31:39.815Z,15.70
2022-12-23T09:34:13.481Z,14.90
2022-12-23T09:36:41.688Z,14.70
2022-12-23T09:39:15.245Z,16.00
2022-12-23T09:42:12.693Z,15.60
2022-12-23T09:45:08.081Z,17.30
2022-12-23T09:47:38.281Z,15.30
2022-12-23T09:50:48.291Z,17.50
2022-12-23T09:53:25.360Z,16.00
2022-12-23T09:56:11.190Z,16.20
2022-12-23T09:58:50.189Z,15.80
2022-12-23T10:01:51.964Z,15.50
2022-12-23T10:04:23.091Z,13.90
2022-12-23T10:07:38.823Z,14.30
2022-12-23T10:10:33.508Z,14.20
2022-12-23T10:13:06.202Z,14.00
2022-12-23T10:15:47.508Z,15.50
2022-12-23T10:18:23.071Z,14.10
2022-12-23T10:21:01.804Z,15.80
2022-12-23T10:23:44.514Z,15.10
2022-12-23T10:26:25.607Z,15.30
2022-12-23T10:29:16.825Z,15.90
2022-12-23T10:31:59.549Z,14.10
2022-12-23T10:35:05.166Z,14.30
2022-12-23T10:37:37.744Z,15.00
2022-12-23T10:40:24.362Z,14.70
2022-12-23T10:43:02.462Z,14.90
2022-12-23T10:45:56.335Z,14.80
2022-12-23T10:48:56.532Z,13.10
2022-12-23T10:51:53.706Z,14.90
2022-12-23T10:54:27.195Z,13.90
2022-12-23T10:56:55.995Z,13.70
2022-12-23T10:59:30.212Z,14.80
2022-12-23T11:02:13.876Z,14.80
2022-12-23T11:04:44.681Z,13.90
2022-12-23T11:07:44.277Z,13.60
2022-12-23T11:10:19.599Z,14.10
2022-12-23T11:12:53.519Z,14.90
2022-12-23T11:18:12.632Z,13.90
2022-12-23T11:20:43.183Z,14.50
2022-12-23T11:23:27.119Z,14.10
2022-12-23T11:26:06.018Z,14.00
2022-12-23T11:28:38.804Z,13.90
2022-12-23T11:31:14.720Z,15.00
2022-12-23T11:34:02.633Z,14.40
2022-12-23T11:36:33.325Z,13.60
2022-12-23T11:39:24.173Z,14.30
2022-12-23T11:42:01.894Z,13.90
2022-12-23T11:44:31.276Z,13.70
2022-12-23T11:47:17.731Z,13.80
2022-12-23T11:49:56.571Z,14.70
2022-12-23T11:52:31.212Z,13.70
2022-12-23T11:55:02.420Z,14.40
2022-12-23T11:57:51.842Z,15.40
2022-12-23T12:00:21.537Z,15.00
2022-12-23T12:02:54.671Z,15.30
2022-12-23T12:05:32.461Z,15.50
2022-12-23T12:08:04.807Z,15.80
2022-12-23T12:10:40.605Z,16.30
2022-12-23T12:13:29.290Z,16.60
2022-12-23T12:15:57.556Z,14.80
2022-12-23T12:18:26.939Z,16.00
2022-12-23T12:21:02.802Z,17.10
2022-12-23T12:23:40.373Z,14.90
2022-12-23T12:26:30.375Z,16.00
2022-12-23T12:29:25.807Z,14.80
2022-12-23T12:31:59.131Z,15.20
2022-12-23T12:35:12.334Z,15.10
2022-12-23T12:37:52.158Z,15.10
2022-12-23T12:40:42.662Z,16.00
2022-12-23T12:43:20.759Z,16.40
2022-12-23T12:46:18.818Z,17.60
2022-12-23T12:49:06.043Z,16.40
2022-12-23T12:51:43.051Z,17.90
2022-12-23T12:54:28.495Z,18.00
2022-12-23T12:56:59.344Z,17.70
2022-12-23T12:59:34.780Z,17.10
2022-12-23T13:02:08.875Z,16.60
2022-12-23T13:04:56.848Z,16.00
2022-12-23T13:07:30.861Z,15.20
2022-12-23T13:10:12.158Z,16.70
2022-12-23T13:12:48.959Z,15.60
2022-12-23T13:15:49.241Z,16.80
2022-12-23T13:18:45.483Z,18.10
2022-12-23T13:21:51.236Z,19.00
2022-12-23T13:24:33.080Z,16.00
2022-12-23T13:27:13.191Z,15.30
2022-12-23T13:29:58.597Z,17.60
2022-12-23T13:32:54.685Z,18.20
2022-12-23T13:36:04.946Z,17.20
2022-12-23T13:39:05.825Z,15.60
2022-12-23T13:41:42.695Z,17.00
2022-12-23T13:44:15.692Z,16.60
2022-12-23T13:47:09.091Z,15.20
2022-12-23T13:50:19.398Z,16.10
2022-12-23T13:53:15.664Z,17.10
2022-12-23T13:56:00.519Z,14.90
2022-12-23T13:58:31.456Z,15.90
2022-12-23T14:01:08.460Z,15.40
2022-12-23T14:03:40.426Z,13.00
2022-12-23T14:06:40.376Z,15.90
2022-12-23T14:09:15.660Z,16.50
2022-12-23T14:11:45.576Z,17.20
2022-12-23T14:14:24.070Z,18.20
2022-12-23T14:17:11.304Z,18.10
2022-12-23T14:19:59.006Z,17.90
2022-12-23T14:22:56.173Z,17.80
2022-12-23T14:25:37.189Z,17.90
2022-12-23T14:28:29.341Z,15.90
2022-12-23T14:30:59.609Z,17.50
2022-12-23T14:33:33.877Z,17.80
2022-12-23T14:36:21.514Z,17.60
2022-12-23T14:39:40.259Z,18.00
2022-12-23T14:42:16.677Z,16.00
2022-12-23T14:44:50.472Z,15.40
2022-12-23T14:50:34.561Z,14.00
2022-12-23T14:53:23.149Z,13.70
2022-12-23T14:56:11.335Z,14.10
2022-12-23T14:58:48.346Z,13.90
2022-12-23T15:01:51.264Z,14.00
2022-12-23T15:04:20.949Z,15.00
2022-12-23T15:06:55.573Z,14.50
2022-12-23T15:09:42.405Z,13.90
2022-12-23T19:04:07.849Z,16.70
2022-12-23T19:06:37.521Z,16.40
2022-12-23T19:09:07.611Z,16.30
2022-12-23T19:11:35.780Z,16.10
2022-12-23T19:14:05.453Z,17.10
2022-12-23T19:16:33.642Z,15.70
2022-12-23T19:19:05.248Z,17.40
2022-12-23T19:21:35.004Z,17.20
2022-12-23T19:24:05.437Z,17.10
2022-12-23T19:26:33.642Z,17.20
2022-12-23T19:29:01.561Z,17.30
2022-12-23T19:31:31.626Z,17.60
2022-12-23T19:34:01.886Z,17.00
2022-12-23T19:36:30.131Z,16.70
2022-12-23T19:38:59.451Z,16.20
2022-12-23T19:41:29.260Z,18.10
2022-12-23T19:43:57.464Z,17.00
2022-12-23T19:46:25.668Z,18.30
2022-12-23T19:48:55.161Z,18.80
2022-12-23T19:51:23.357Z,18.10
2022-12-23T19:53:53.517Z,16.90
2022-12-23T19:56:22.658Z,17.00
2022-12-23T19:58:53.065Z,17.20
2022-12-23T20:01:25.612Z,17.30
2022-12-23T20:03:56.873Z,17.30
2022-12-23T20:06:33.346Z,17.40
2022-12-23T20:09:06.473Z,19.00
2022-12-23T20:11:55.427Z,16.90
2022-12-23T20:14:27.792Z,18.30
2022-12-23T20:17:00.138Z,17.60
2022-12-23T20:19:28.431Z,16.80
2022-12-23T20:21:56.799Z,18.10
2022-12-23T20:24:25.047Z,17.90
2022-12-23T20:26:53.080Z,17.10
2022-12-23T20:29:21.338Z,16.60
2022-12-23T20:31:52.488Z,16.00
2022-12-23T20:34:22.168Z,15.90
2022-12-23T20:36:50.213Z,17.80
2022-12-23T20:39:20.140Z,15.40
2022-12-23T20:41:48.320Z,16.60
2022-12-23T20:47:06.966Z,16.20
2022-12-23T20:49:37.858Z,17.00
2022-12-23T20:52:06.115Z,16.40
2022-12-23T20:54:35.106Z,16.60
2022-12-23T20:57:05.102Z,15.90
2022-12-23T20:59:35.027Z,14.90
2022-12-23T21:02:03.543Z,16.50
2022-12-23T21:04:34.738Z,16.60
2022-12-23T21:07:02.719Z,16.90
2022-12-23T21:09:32.695Z,15.90
2022-12-23T21:12:00.761Z,16.20
2022-12-23T21:14:30.492Z,16.60
2022-12-23T21:16:58.681Z,15.00
2022-12-23T21:19:28.197Z,17.00
2022-12-23T21:21:57.874Z,15.50
2022-12-23T21:24:26.114Z,15.00
2022-12-23T21:26:57.303Z,15.10
2022-12-23T21:29:28.182Z,16.60
2022-12-23T21:31:56.827Z,16.00
2022-12-23T21:34:25.507Z,15.60
2022-12-23T21:36:55.613Z,18.70
2022-12-23T21:39:25.251Z,16.00
2022-12-23T21:41:53.224Z,16.90
2022-12-23T21:44:21.503Z,16.60
2022-12-23T21:46:52.314Z,17.20
2022-12-23T21:49:21.637Z,15.60
2022-12-23T21:51:51.927Z,16.10
2022-12-23T21:54:20.520Z,14.70
2022-12-23T21:56:48.465Z,15.80
2022-12-23T21:59:18.494Z,16.20
2022-12-23T22:01:46.755Z,14.20
2022-12-23T22:04:18.565Z,16.80
2022-12-23T22:06:46.545Z,14.00
2022-12-23T22:09:21.183Z,17.20
2022-12-23T22:11:49.339Z,15.10
2022-12-23T22:14:19.860Z,15.90
2022-12-23T22:16:49.866Z,19.00
2022-12-23T22:19:19.603Z,15.40
2022-12-23T22:21:47.787Z,15.30
2022-12-23T22:24:17.299Z,14.30
2022-12-23T22:26:45.248Z,15.40
2022-12-23T22:29:13.485Z,14.50
2022-12-23T22:31:53.354Z,14.70
2022-12-23T22:34:22.936Z,16.90
2022-12-23T22:36:51.626Z,15.50
2022-12-23T22:39:23.067Z,16.70
2022-12-23T22:41:52.577Z,14.90
2022-12-23T22:44:23.710Z,19.70
2022-12-23T22:46:53.241Z,15.40
2022-12-23T22:49:22.894Z,16.90
2022-12-23T22:51:50.843Z,16.40
2022-12-23T22:54:19.055Z,15.00
2022-12-23T22:56:49.835Z,16.10
2022-12-23T22:59:23.188Z,15.70
2022-12-23T23:01:54.471Z,16.30
2022-12-23T23:04:24.897Z,17.00
2022-12-23T23:06:53.708Z,16.10
2022-12-23T23:09:24.593Z,15.10
2022-12-23T23:11:52.778Z,15.20
2022-12-23T23:14:20.821Z,15.40
2022-12-23T23:16:53.659Z,16.20
2022-12-23T23:19:22.338Z,15.10
2022-12-23T23:21:50.974Z,16.20
2022-12-23T23:24:19.172Z,14.80
2022-12-23T23:26:47.335Z,15.90
2022-12-23T23:29:15.289Z,15.70
2022-12-23T23:31:44.521Z,14.80
2022-12-23T23:34:16.140Z,12.90
2022-12-23T23:36:44.508Z,16.00
2022-12-23T23:39:17.304Z,14.70
2022-12-23T23:41:45.211Z,15.70
2022-12-23T23:44:13.497Z,15.90
2022-12-23T23:46:41.705Z,15.40
2022-12-23T23:49:12.220Z,15.20
2022-12-23T23:51:43.149Z,16.30
2022-12-23T23:54:11.352Z,15.10
2022-12-23T23:56:39.670Z,14.00
2022-12-23T23:59:09.703Z,16.10
